Time;durP1;ratioP1;P1;durP2;ratioP2;P2;SDS_P1;SDS_P2;PMS_P1;PMS_P2;Temp;Humidity;BMP_temperature;BMP_pressure;BME280_temperature;BME280_humidity;BME280_pressure;Samples;Min_cycle;Max_cycle;Signal;HPM_P1;HPM_P2
2022/08/31 00:05:23;;;;;;;30.17;10.13;;;;;;;20.81;63.82;98934.41;5066186;28;20048;-79
2022/08/31 00:07:51;;;;;;;23.75;9.85;;;;;;;20.69;63.84;98927.94;5063539;28;20422;-80
2022/08/31 00:10:26;;;;;;;21.38;9.05;;;;;;;20.72;63.64;98935.75;5061519;28;20405;-78
2022/08/31 00:13:04;;;;;;;22.42;8.75;;;;;;;20.68;63.49;98936.00;5060730;28;20060;-78
2022/08/31 00:15:34;;;;;;;21.70;10.20;;;;;;;20.68;63.56;98936.00;5062002;28;20051;-79
2022/08/31 00:18:02;;;;;;;17.07;9.00;;;;;;;20.62;63.49;98931.88;5062756;28;20052;-79
2022/08/31 00:20:30;;;;;;;17.60;8.38;;;;;;;20.57;63.46;98928.56;5063586;28;20101;-79
2022/08/31 00:23:06;;;;;;;23.60;8.65;;;;;;;20.58;63.51;98948.88;5062138;28;20045;-78
2022/08/31 00:25:35;;;;;;;19.52;9.07;;;;;;;20.55;63.63;98949.88;5063050;28;20160;-79
2022/08/31 00:28:03;;;;;;;17.90;8.07;;;;;;;20.45;63.69;98943.31;5061049;28;20139;-79
2022/08/31 00:30:31;;;;;;;15.30;8.45;;;;;;;20.43;63.85;98948.72;5061854;28;20432;-79
2022/08/31 00:32:59;;;;;;;14.45;8.48;;;;;;;20.22;63.95;98916.19;5066709;28;20060;-79
2022/08/31 00:35:28;;;;;;;21.10;8.43;;;;;;;20.36;64.20;98957.91;5065337;28;20056;-79
2022/08/31 00:37:56;;;;;;;16.90;8.95;;;;;;;20.29;64.30;98951.22;5039138;28;20521;-79
2022/08/31 00:40:25;;;;;;;20.00;9.38;;;;;;;20.29;64.16;98958.31;5038223;28;20402;-78
2022/08/31 00:42:53;;;;;;;18.67;9.10;;;;;;;20.17;64.72;98944.72;5052227;28;20528;-77
2022/08/31 00:45:21;;;;;;;16.25;8.65;;;;;;;20.15;64.92;98954.53;5052516;28;20143;-78
2022/08/31 00:47:51;;;;;;;17.05;8.20;;;;;;;20.09;64.99;98957.53;5051885;28;20626;-77
2022/08/31 00:50:24;;;;;;;18.55;8.50;;;;;;;19.86;65.12;98926.88;5069240;28;20087;-78
2022/08/31 00:52:57;;;;;;;12.57;7.57;;;;;;;20.02;65.36;98959.59;5071540;28;20070;-79
2022/08/31 00:55:33;;;;;;;15.68;8.48;;;;;;;19.95;65.57;98952.06;5070486;28;20060;-79
2022/08/31 00:58:08;;;;;;;17.02;7.72;;;;;;;19.76;65.85;98938.84;5052180;28;20057;-77
2022/08/31 01:00:35;;;;;;;12.75;7.75;;;;;;;19.85;66.07;98959.56;5057700;28;20051;-76
2022/08/31 01:03:05;;;;;;;15.00;7.97;;;;;;;19.82;66.05;98957.94;5063945;28;20500;-78
2022/08/31 01:05:34;;;;;;;20.08;8.23;;;;;;;19.76;66.06;98958.25;5042995;28;20044;-78
2022/08/31 01:08:03;;;;;;;16.52;8.00;;;;;;;19.77;66.24;98975.00;5062476;28;20057;-78
2022/08/31 01:10:33;;;;;;;18.45;8.68;;;;;;;19.76;66.19;98966.19;5063650;28;20397;-79
2022/08/31 01:13:01;;;;;;;16.52;8.02;;;;;;;19.76;66.59;98965.34;5061849;28;20052;-80
2022/08/31 01:15:29;;;;;;;20.80;8.80;;;;;;;19.78;66.39;98977.56;5061846;28;20131;-80
2022/08/31 01:18:01;;;;;;;15.73;8.70;;;;;;;19.57;66.36;98934.38;5059824;28;20057;-80
2022/08/31 01:20:50;;;;;;;17.10;8.68;;;;;;;19.68;66.55;98964.81;5042305;28;20057;-78
2022/08/31 01:23:41;;;;;;;13.60;7.50;;;;;;;19.60;66.58;98957.25;5050184;28;20045;-79
2022/08/31 01:26:12;;;;;;;17.10;8.52;;;;;;;19.60;66.92;98966.03;5060809;28;20555;-78
2022/08/31 01:28:39;;;;;;;16.95;8.00;;;;;;;19.58;67.11;98961.75;5061672;28;20435;-80
2022/08/31 01:31:28;;;;;;;17.30;7.88;;;;;;;19.53;67.34;98945.22;5065340;28;20059;-79
2022/08/31 01:33:56;;;;;;;14.77;8.25;;;;;;;19.47;67.53;98956.09;5055067;28;20135;-79
2022/08/31 01:36:24;;;;;;;17.55;8.52;;;;;;;19.47;67.62;98956.09;5057365;28;20056;-79
2022/08/31 01:38:52;;;;;;;17.38;8.20;;;;;;;19.44;67.74;98949.16;5071933;28;20143;-79
2022/08/31 01:41:20;;;;;;;15.25;8.50;;;;;;;19.42;67.74;98956.31;5075587;28;20045;-78
2022/08/31 01:43:49;;;;;;;15.07;8.32;;;;;;;19.38;68.15;98944.16;5057333;28;20169;-79
2022/08/31 01:46:16;;;;;;;15.18;8.23;;;;;;;19.31;68.00;98950.66;5074194;28;20049;-79
2022/08/31 01:48:45;;;;;;;12.88;8.15;;;;;;;19.31;68.11;98945.38;5075179;28;20139;-78
2022/08/31 01:51:15;;;;;;;13.30;8.13;;;;;;;19.30;68.11;98938.38;5075337;28;20053;-78
2022/08/31 01:53:45;;;;;;;14.45;8.25;;;;;;;19.27;68.38;98933.22;5057354;28;20059;-78
2022/08/31 01:56:20;;;;;;;19.88;8.77;;;;;;;19.06;68.52;98904.19;5075158;28;20093;-77
2022/08/31 01:58:48;;;;;;;16.52;9.20;;;;;;;19.10;68.86;98921.63;5050365;28;20130;-78
2022/08/31 02:01:48;;;;;;;13.88;7.72;;;;;;;19.11;68.78;98933.94;5020017;28;20065;-79
2022/08/31 02:04:17;;;;;;;14.32;8.07;;;;;;;19.06;68.72;98925.34;5057116;28;20101;-77
2022/08/31 02:06:47;;;;;;;13.10;8.98;;;;;;;19.00;68.85;98909.75;5074762;28;20102;-78
2022/08/31 02:09:17;;;;;;;14.48;8.13;;;;;;;19.10;69.10;98937.53;5073849;28;20147;-79
2022/08/31 02:11:44;;;;;;;14.40;8.63;;;;;;;19.07;69.14;98935.00;5074739;28;20057;-78
2022/08/31 02:14:12;;;;;;;10.73;7.68;;;;;;;19.02;69.15;98932.56;5075014;28;20142;-79
2022/08/31 02:16:40;;;;;;;11.73;7.60;;;;;;;19.00;69.49;98931.78;5057084;28;20097;-79
2022/08/31 02:19:07;;;;;;;14.32;8.50;;;;;;;18.82;69.41;98895.56;5074764;28;20135;-80
2022/08/31 02:21:35;;;;;;;15.48;7.72;;;;;;;19.02;69.83;98937.00;5054688;28;20112;-78
2022/08/31 02:24:03;;;;;;;20.10;9.52;;;;;;;18.95;69.93;98936.44;5073211;28;20463;-78
2022/08/31 02:26:31;;;;;;;17.20;8.65;;;;;;;18.94;70.14;98932.06;5074377;28;20519;-78
2022/08/31 02:28:58;;;;;;;13.50;7.90;;;;;;;18.90;69.97;98922.53;5074649;28;20087;-78
2022/08/31 02:31:25;;;;;;;19.02;8.38;;;;;;;18.89;70.47;98922.63;5056633;28;20417;-79
2022/08/31 02:33:58;;;;;;;13.00;7.50;;;;;;;18.81;70.65;98917.66;5073549;28;20147;-79
2022/08/31 02:36:25;;;;;;;14.65;7.60;;;;;;;18.84;70.75;98917.53;5075023;28;20051;-78
2022/08/31 02:38:53;;;;;;;16.88;8.45;;;;;;;18.87;70.49;98924.47;5040288;28;20076;-78
2022/08/31 02:41:22;;;;;;;17.25;8.45;;;;;;;18.83;70.45;98911.38;5056864;28;20050;-78
2022/08/31 02:43:49;;;;;;;17.85;8.20;;;;;;;18.78;70.84;98905.44;5074266;28;20061;-78
2022/08/31 02:46:17;;;;;;;16.27;8.35;;;;;;;18.86;70.63;98923.59;5057230;28;20044;-78
2022/08/31 02:48:54;;;;;;;19.35;8.18;;;;;;;18.87;70.50;98921.84;5068669;28;20059;-78
2022/08/31 02:51:21;;;;;;;18.42;9.23;;;;;;;18.85;70.84;98921.91;5073839;28;20053;-77
2022/08/31 02:53:49;;;;;;;15.02;8.80;;;;;;;18.90;70.81;98933.13;5074117;28;20052;-78
2022/08/31 02:56:16;;;;;;;21.40;8.85;;;;;;;18.87;70.52;98908.59;5056358;28;20093;-78
2022/08/31 02:58:45;;;;;;;16.98;8.82;;;;;;;18.98;70.29;98922.19;5055708;28;20428;-78
2022/08/31 03:01:12;;;;;;;20.20;8.50;;;;;;;18.92;70.32;98927.75;5056170;28;20052;-78
2022/08/31 03:03:41;;;;;;;16.25;8.27;;;;;;;18.94;70.50;98929.41;5072616;28;20079;-78
2022/08/31 03:06:13;;;;;;;18.67;9.73;;;;;;;18.99;70.52;98929.19;5074019;28;20056;-78
2022/08/31 03:08:41;;;;;;;17.48;8.50;;;;;;;18.90;70.28;98896.06;5055925;28;20080;-78
2022/08/31 03:11:09;;;;;;;18.83;8.73;;;;;;;19.12;69.78;98909.19;5074139;28;20076;-78
2022/08/31 03:13:38;;;;;;;22.10;9.43;;;;;;;19.26;69.44;98920.91;5056032;28;20059;-78
2022/08/31 03:16:05;;;;;;;18.80;9.25;;;;;;;19.27;69.31;98927.91;5072594;28;20052;-77
2022/08/31 03:18:32;;;;;;;17.88;9.65;;;;;;;19.27;69.11;98910.22;5055638;28;20052;-79
2022/08/31 03:21:00;;;;;;;16.00;9.25;;;;;;;19.31;69.03;98919.75;5043000;28;20068;-79
2022/08/31 03:23:29;;;;;;;18.75;9.95;;;;;;;19.32;68.68;98912.69;5052678;28;20144;-80
2022/08/31 03:25:57;;;;;;;14.88;8.88;;;;;;;19.39;68.53;98922.91;5053644;28;20056;-78
2022/08/31 03:28:25;;;;;;;18.92;9.25;;;;;;;19.41;68.54;98921.03;5035845;28;20107;-79
2022/08/31 03:31:23;;;;;;;15.85;9.30;;;;;;;19.49;68.44;98923.34;5053519;28;20049;-79
2022/08/31 03:33:51;;;;;;;13.50;9.45;;;;;;;19.57;68.00;98920.28;5052520;28;20110;-79
2022/08/31 03:36:18;;;;;;;18.17;9.32;;;;;;;19.67;67.71;98924.22;5035560;28;20410;-78
2022/08/31 03:38:46;;;;;;;14.80;8.80;;;;;;;19.79;67.17;98915.72;5042429;28;20047;-78
2022/08/31 03:41:16;;;;;;;17.38;9.00;;;;;;;19.95;66.34;98896.41;5054425;28;20055;-78
2022/08/31 03:43:44;;;;;;;16.30;8.75;;;;;;;20.16;65.75;98919.16;5045069;28;20060;-78
2022/08/31 03:46:13;;;;;;;16.35;8.38;;;;;;;20.29;65.50;98923.84;5055224;28;20070;-78
2022/08/31 03:48:42;;;;;;;12.95;8.25;;;;;;;20.52;64.42;98912.03;5054989;28;20455;-78
2022/08/31 03:51:09;;;;;;;11.48;7.13;;;;;;;20.78;63.38;98914.19;5071488;28;20075;-78
2022/08/31 03:53:36;;;;;;;11.43;7.65;;;;;;;20.92;62.99;98913.44;5051923;28;20496;-78
2022/08/31 03:56:07;;;;;;;14.18;7.28;;;;;;;21.03;62.59;98913.72;5071679;28;20074;-77
2022/08/31 03:58:39;;;;;;;18.88;6.95;;;;;;;21.10;62.25;98916.91;5071983;28;20048;-77
2022/08/31 04:01:11;;;;;;;13.77;7.88;;;;;;;21.22;61.71;98900.28;5064100;28;20053;-78
2022/08/31 04:04:05;;;;;;;20.35;7.20;;;;;;;21.35;61.14;98908.44;5051935;28;20578;-82
2022/08/31 04:06:50;;;;;;;13.82;7.00;;;;;;;21.45;60.78;98901.69;5053583;28;20057;-79
2022/08/31 04:09:36;;;;;;;14.23;7.63;;;;;;;21.51;60.48;98908.47;5053705;28;20080;-79
2022/08/31 04:12:43;;;;;;;14.20;7.07;;;;;;;21.80;59.62;98901.47;5011394;28;20061;-83
2022/08/31 04:15:28;;;;;;;17.38;6.80;;;;;;;22.06;59.04;98912.38;5000776;28;20049;-80
2022/08/31 04:18:14;;;;;;;15.95;6.15;;;;;;;22.27;58.10;98905.81;5049729;28;20052;-80
2022/08/31 04:20:45;;;;;;;15.85;7.05;;;;;;;22.43;57.83;98903.09;5075110;28;20110;-80
2022/08/31 04:23:13;;;;;;;18.17;7.57;;;;;;;22.31;57.03;98847.13;5072669;28;20072;-82
2022/08/31 04:25:51;;;;;;;10.90;6.53;;;;;;;22.10;57.21;98836.81;5054148;28;20061;-83
2022/08/31 04:28:18;;;;;;;14.55;7.05;;;;;;;22.44;56.91;98867.56;5055273;28;20098;-81
2022/08/31 04:30:47;;;;;;;17.08;6.50;;;;;;;22.51;56.66;98885.81;5072577;28;20060;-80
2022/08/31 04:33:15;;;;;;;;;;;;;;;22.15;58.12;98895.03;5071975;28;20504;-80
2022/08/31 04:35:42;;;;;;;14.15;6.40;;;;;;;22.26;57.65;98897.94;5055054;28;20296;-79
2022/08/31 04:38:10;;;;;;;14.00;6.82;;;;;;;22.39;57.20;98909.56;5071827;28;20059;-81
2022/08/31 04:40:41;;;;;;;14.18;7.57;;;;;;;22.51;57.03;98889.31;5068602;28;20052;-80
2022/08/31 04:43:09;;;;;;;16.45;6.70;;;;;;;22.63;56.20;98869.09;5036355;28;20049;-83
2022/08/31 04:45:40;;;;;;;15.52;7.40;;;;;;;22.92;55.47;98901.88;5052656;28;20489;-81
2022/08/31 04:48:09;;;;;;;10.18;6.35;;;;;;;23.00;55.27;98882.78;5035580;28;20052;-83
2022/08/31 04:50:36;;;;;;;12.63;6.88;;;;;;;23.16;54.98;98896.84;5035219;28;20497;-83
2022/08/31 04:53:09;;;;;;;11.65;6.88;;;;;;;23.18;54.29;98862.13;5053576;28;20160;-82
2022/08/31 04:55:41;;;;;;;14.40;7.30;;;;;;;23.20;54.59;98882.38;5035799;28;20068;-83
2022/08/31 04:58:11;;;;;;;15.32;7.47;;;;;;;23.23;54.54;98890.19;5035930;28;20414;-81
2022/08/31 05:00:42;;;;;;;13.02;7.40;;;;;;;22.91;54.38;98825.63;5053144;28;20061;-83
2022/08/31 05:03:44;;;;;;;16.15;8.02;;;;;;;23.29;54.21;98872.94;5040836;28;20083;-83
2022/08/31 05:06:15;;;;;;;12.80;7.03;;;;;;;23.37;53.87;98893.75;5054069;28;20144;-82
2022/08/31 05:08:43;;;;;;;9.98;6.40;;;;;;;23.37;54.07;98891.94;5038533;28;20048;-81
2022/08/31 05:11:16;;;;;;;13.18;6.57;;;;;;;23.38;53.74;98872.34;5037852;28;20095;-81
2022/08/31 05:13:51;;;;;;;9.00;6.45;;;;;;;23.34;53.51;98868.19;5053860;28;20095;-82
2022/08/31 05:16:19;;;;;;;11.95;6.85;;;;;;;23.37;53.70;98877.78;5030561;28;20048;-81
2022/08/31 05:18:48;;;;;;;12.88;6.47;;;;;;;23.48;53.49;98888.59;5058105;28;20044;-81
2022/08/31 05:21:27;;;;;;;12.20;6.50;;;;;;;23.64;52.50;98875.97;5066274;28;20072;-79
2022/08/31 05:23:56;;;;;;;11.77;6.35;;;;;;;23.56;53.05;98885.44;5081522;28;20053;-78
2022/08/31 05:26:29;;;;;;;12.50;7.27;;;;;;;23.51;52.97;98878.59;5058063;28;20048;-82
2022/08/31 05:28:58;;;;;;;11.63;6.75;;;;;;;23.57;52.84;98887.13;5039065;28;20295;-83
2022/08/31 05:31:30;;;;;;;9.55;6.57;;;;;;;23.59;52.79;98875.41;5035074;28;20053;-78
2022/08/31 05:33:59;;;;;;;12.85;5.65;;;;;;;23.38;52.10;98839.50;5034777;28;20064;-82
2022/08/31 05:36:34;;;;;;;10.20;5.60;;;;;;;23.77;51.64;98896.50;5034987;28;20132;-83
2022/08/31 05:39:03;;;;;;;10.75;5.97;;;;;;;23.90;51.75;98882.25;5051348;28;20060;-83
2022/08/31 05:41:30;;;;;;;10.80;6.35;;;;;;;23.89;51.29;98891.19;5035085;28;20413;-82
2022/08/31 05:43:57;;;;;;;12.30;5.18;;;;;;;23.69;51.77;98892.50;5051406;28;20053;-82
2022/08/31 05:46:24;;;;;;;15.65;5.78;;;;;;;23.64;51.76;98889.28;5051453;28;20057;-82
2022/08/31 05:48:52;;;;;;;11.50;6.35;;;;;;;23.47;51.62;98844.25;5052042;28;20053;-81
2022/08/31 05:51:20;;;;;;;11.95;5.85;;;;;;;23.54;52.12;98892.66;5051155;28;20072;-83
2022/08/31 05:53:48;;;;;;;13.52;5.70;;;;;;;23.52;52.02;98874.09;5034678;28;20049;-82
2022/08/31 05:56:23;;;;;;;10.63;5.75;;;;;;;23.69;51.73;98887.16;5017472;28;20049;-81
2022/08/31 05:58:55;;;;;;;16.08;6.07;;;;;;;23.76;51.37;98910.78;5033853;28;20485;-80
2022/08/31 06:01:29;;;;;;;11.85;5.40;;;;;;;24.01;50.51;98862.03;5017620;28;20049;-79
2022/08/31 06:04:17;;;;;;;18.50;5.18;;;;;;;24.37;50.00;98887.13;5057719;28;20174;-80
2022/08/31 06:06:44;;;;;;;12.48;5.40;;;;;;;24.08;50.34;98882.81;5054017;28;20054;-79
2022/08/31 06:09:13;;;;;;;13.17;4.77;;;;;;;23.77;50.83;98878.72;5070924;28;20056;-79
2022/08/31 06:11:42;;;;;;;11.68;4.95;;;;;;;23.80;50.57;98874.97;5070903;28;20048;-78
2022/08/31 06:14:13;;;;;;;13.00;5.28;;;;;;;24.02;50.27;98890.38;5038276;28;20076;-79
2022/08/31 06:16:43;;;;;;;14.85;4.05;;;;;;;24.02;49.82;98895.72;5053781;28;20053;-79
2022/08/31 06:19:13;;;;;;;9.00;4.10;;;;;;;23.49;50.20;98858.31;5054535;28;20045;-79
2022/08/31 06:21:48;;;;;;;9.38;3.80;;;;;;;23.42;50.96;98897.81;5054235;28;20055;-79
2022/08/31 06:24:22;;;;;;;11.47;3.87;;;;;;;23.45;50.84;98891.47;5054417;28;20088;-79
2022/08/31 06:26:54;;;;;;;9.90;4.13;;;;;;;23.59;50.53;98907.38;5041034;28;20067;-78
2022/08/31 06:29:31;;;;;;;20.63;4.63;;;;;;;23.77;50.17;98885.84;5058111;28;20044;-79
2022/08/31 06:32:06;;;;;;;8.40;3.90;;;;;;;23.68;50.21;98888.16;5057742;28;20152;-79
2022/08/31 06:34:40;;;;;;;7.20;4.10;;;;;;;23.58;50.71;98899.50;5041931;28;20124;-79
2022/08/31 06:37:13;;;;;;;9.27;4.57;;;;;;;23.34;51.55;98902.81;5056458;28;20055;-78
2022/08/31 06:40:04;;;;;;;10.52;4.47;;;;;;;23.47;51.57;98908.22;5074770;28;20055;-82
2022/08/31 06:42:55;;;;;;;10.18;4.28;;;;;;;23.62;50.89;98915.19;5037405;28;20408;-82
2022/08/31 06:45:31;;;;;;;13.35;4.85;;;;;;;23.40;51.55;98909.53;5075312;28;20052;-80
2022/08/31 06:48:17;;;;;;;8.20;4.40;;;;;;;23.50;51.32;98914.16;5064057;28;20045;-81
2022/08/31 06:50:55;;;;;;;7.93;4.20;;;;;;;23.42;51.55;98915.63;5052636;28;20427;-82
2022/08/31 06:53:22;;;;;;;9.75;4.45;;;;;;;23.09;51.76;98892.88;5061791;28;20056;-82
2022/08/31 06:56:23;;;;;;;14.18;4.72;;;;;;;22.80;52.48;98876.88;5069981;28;20068;-85
2022/08/31 06:59:17;;;;;;;12.18;4.63;;;;;;;22.64;53.61;98934.69;5060660;28;20061;-83
2022/08/31 07:01:51;;;;;;;12.50;4.57;;;;;;;22.47;53.62;98920.56;5076125;28;20048;-83
2022/08/31 07:04:22;;;;;;;16.73;4.72;;;;;;;22.30;54.17;98936.69;5056516;28;20060;-82
2022/08/31 07:06:50;;;;;;;11.23;4.90;;;;;;;22.36;53.96;98930.16;5058405;28;20052;-82
2022/08/31 07:09:17;;;;;;;12.68;4.35;;;;;;;22.45;53.90;98935.78;5074927;28;20579;-83
2022/08/31 07:11:48;;;;;;;14.20;4.50;;;;;;;22.57;53.20;98946.66;5073945;28;20560;-84
2022/08/31 07:14:23;;;;;;;10.43;5.07;;;;;;;22.35;53.23;98925.78;5074656;28;20156;-82
2022/08/31 07:16:55;;;;;;;12.00;4.55;;;;;;;22.35;53.56;98949.72;5074452;28;20144;-81
2022/08/31 07:19:27;;;;;;;10.75;4.68;;;;;;;22.14;53.84;98935.88;5074180;28;20528;-84
2022/08/31 07:22:08;;;;;;;10.73;4.45;;;;;;;22.08;54.15;98953.03;5056899;28;20044;-84
2022/08/31 07:24:40;;;;;;;6.55;4.28;;;;;;;22.08;54.41;98940.59;5057251;28;20048;-85
2022/08/31 07:27:15;;;;;;;18.45;5.72;;;;;;;21.99;54.40;98943.78;5040243;28;20432;-85
2022/08/31 07:29:54;;;;;;;10.23;4.65;;;;;;;21.93;54.63;98940.63;5073614;28;20060;-83
2022/08/31 07:32:22;;;;;;;8.05;4.57;;;;;;;21.93;54.65;98953.94;5040131;28;20516;-78
2022/08/31 07:34:50;;;;;;;6.75;4.68;;;;;;;21.71;55.17;98938.38;5057633;28;20139;-80
2022/08/31 07:43:22;;;;;;;10.23;4.90;;;;;;;21.65;55.50;98944.88;5073317;28;20455;-85
2022/08/31 07:45:50;;;;;;;9.13;4.90;;;;;;;21.75;55.42;98955.84;5073256;28;20052;-84
2022/08/31 07:48:22;;;;;;;8.43;4.93;;;;;;;21.86;55.43;98964.91;5074725;28;20064;-79
2022/08/31 07:51:04;;;;;;;10.65;5.18;;;;;;;21.76;55.23;98938.94;5072909;28;20052;-80
2022/08/31 07:53:46;;;;;;;8.05;4.28;;;;;;;21.70;55.42;98977.34;5056164;28;20072;-79
2022/08/31 07:56:24;;;;;;;8.75;4.63;;;;;;;21.54;55.90;98966.75;5074051;28;20573;-79
2022/08/31 07:59:08;;;;;;;11.98;4.88;;;;;;;21.41;55.93;98963.03;5074093;28;20149;-81
2022/08/31 08:01:40;;;;;;;13.05;4.60;;;;;;;21.45;56.11;98970.75;5071645;28;20132;-83
2022/08/31 08:04:12;;;;;;;9.15;4.47;;;;;;;21.60;55.78;98958.44;5039595;28;20546;-84
2022/08/31 08:06:59;;;;;;;7.05;4.25;;;;;;;21.85;54.68;98936.63;5073547;28;20195;-83
2022/08/31 08:09:54;;;;;;;9.07;4.30;;;;;;;22.30;53.91;98955.31;5059410;28;20048;-81
2022/08/31 08:12:45;;;;;;;8.32;4.20;;;;;;;22.64;52.80;98953.31;5073375;28;20048;-81
2022/08/31 08:15:17;;;;;;;9.82;3.80;;;;;;;22.87;51.40;98947.44;5039919;28;20106;-82
2022/08/31 08:18:04;;;;;;;10.20;3.75;;;;;;;23.20;50.43;98961.44;5054103;28;20053;-86
2022/08/31 08:20:39;;;;;;;9.27;4.18;;;;;;;23.31;49.64;98942.94;5049157;28;20052;-85
2022/08/31 08:23:12;;;;;;;7.57;3.28;;;;;;;23.28;49.40;98962.66;5040266;28;20570;-84
2022/08/31 08:26:18;;;;;;;11.70;3.40;;;;;;;23.35;49.06;98941.81;5039998;28;20048;-85
2022/08/31 08:29:06;;;;;;;5.53;3.17;;;;;;;23.64;48.30;98957.72;5073401;28;20290;-82
2022/08/31 08:31:39;;;;;;;8.50;3.63;;;;;;;23.81;47.88;98960.22;5069257;28;20472;-83
2022/08/31 08:34:07;;;;;;;8.35;3.70;;;;;;;23.86;47.65;98949.25;5053267;28;20078;-83
2022/08/31 08:36:36;;;;;;;7.13;3.47;;;;;;;23.79;47.00;98898.13;5035331;28;20475;-82
2022/08/31 08:39:06;;;;;;;5.73;3.53;;;;;;;24.01;47.45;98948.22;5062745;28;20128;-81
2022/08/31 08:41:38;;;;;;;7.05;3.50;;;;;;;23.89;47.29;98909.03;5055227;28;20063;-83
2022/08/31 08:44:09;;;;;;;4.70;3.15;;;;;;;24.17;46.62;98950.69;5054961;28;20135;-82
2022/08/31 08:46:52;;;;;;;7.10;2.88;;;;;;;24.04;46.58;98960.50;5072072;28;20389;-82
2022/08/31 08:49:45;;;;;;;4.57;2.83;;;;;;;23.79;46.83;98943.44;5071300;28;20048;-83
2022/08/31 08:52:45;;;;;;;6.40;2.70;;;;;;;23.60;47.25;98937.59;5054547;28;20524;-83
2022/08/31 08:55:20;;;;;;;6.87;3.00;;;;;;;23.35;47.73;98955.13;5072249;28;20051;-84
2022/08/31 08:57:50;;;;;;;4.40;2.40;;;;;;;22.54;48.01;98869.66;5072059;28;20299;-84
2022/08/31 09:00:25;;;;;;;3.97;2.42;;;;;;;22.90;48.40;98951.69;5071733;28;20064;-85
2022/08/31 09:03:05;;;;;;;5.10;2.80;;;;;;;22.97;48.24;98953.03;5071384;28;20099;-83
2022/08/31 09:06:05;;;;;;;6.35;2.75;;;;;;;23.12;47.85;98958.38;5073327;28;20060;-85
2022/08/31 09:08:41;;;;;;;9.48;2.75;;;;;;;23.20;48.03;98959.63;5055049;28;20508;-83
2022/08/31 09:11:27;;;;;;;4.75;2.80;;;;;;;23.12;47.97;98972.56;5071589;28;20056;-86
2022/08/31 09:14:19;;;;;;;3.55;2.50;;;;;;;23.00;48.33;98983.97;5072743;28;20079;-83
2022/08/31 09:17:23;;;;;;;5.30;2.63;;;;;;;22.80;48.96;98961.19;5054545;28;20424;-83
2022/08/31 09:19:59;;;;;;;8.88;2.70;;;;;;;22.65;49.49;98977.19;5071125;28;20044;-82
2022/08/31 09:22:49;;;;;;;8.82;2.50;;;;;;;22.59;49.58;98969.56;5056077;28;20059;-81
2022/08/31 09:25:34;;;;;;;5.68;2.80;;;;;;;22.87;48.81;98957.22;5071537;28;20049;-81
2022/08/31 09:28:33;;;;;;;12.77;3.80;;;;;;;22.81;49.21;98984.22;5071681;28;20052;-82
2022/08/31 09:31:01;;;;;;;13.13;6.75;;;;;;;22.75;49.66;98984.59;5077058;28;20052;-81
2022/08/31 09:33:34;;;;;;;8.20;3.95;;;;;;;22.66;49.87;98973.56;5059978;28;20052;-81
2022/08/31 09:36:24;;;;;;;6.90;2.85;;;;;;;22.36;50.22;98968.25;5080534;28;20116;-83
2022/08/31 09:38:52;;;;;;;8.18;3.30;;;;;;;22.12;50.88;98953.72;5085414;28;20546;-85
2022/08/31 09:41:28;;;;;;;6.65;2.78;;;;;;;22.36;51.09;98997.53;5081100;28;20059;-83
2022/08/31 09:44:30;;;;;;;5.10;3.10;;;;;;;22.71;50.26;98989.25;5064229;28;20135;-85
2022/08/31 09:47:01;;;;;;;7.20;2.78;;;;;;;23.18;49.60;98985.50;5062970;28;20139;-80
2022/08/31 09:49:35;;;;;;;6.07;2.40;;;;;;;23.42;48.69;98985.75;5061911;28;20057;-83
2022/08/31 09:55:13;;;;;;;5.07;2.17;;;;;;;23.85;46.81;98980.34;5053026;28;20140;-81
2022/08/31 09:57:49;;;;;;;5.50;2.17;;;;;;;23.99;46.05;98947.47;5053051;28;20049;-79
2022/08/31 10:00:30;;;;;;;2.33;2.13;;;;;;;24.38;45.46;98995.59;5055161;28;20110;-78
2022/08/31 10:03:23;;;;;;;9.85;2.58;;;;;;;24.26;45.90;98984.78;5058742;28;20057;-78
2022/08/31 10:05:53;;;;;;;6.57;2.83;;;;;;;24.35;45.99;98990.44;5061353;28;20053;-78
2022/08/31 10:08:56;;;;;;;11.60;2.80;;;;;;;24.23;46.25;98976.13;5061160;28;20048;-79
2022/08/31 10:11:29;;;;;;;6.53;2.58;;;;;;;24.22;46.17;98975.28;5058408;28;21473;-75
2022/08/31 10:14:14;;;;;;;6.95;2.50;;;;;;;24.47;45.69;99000.31;5056272;28;20048;-77
2022/08/31 10:16:48;;;;;;;4.53;2.03;;;;;;;24.50;45.41;98978.75;5055324;28;20052;-76
2022/08/31 10:19:29;;;;;;;6.40;2.20;;;;;;;24.15;45.92;98991.78;5055241;28;20492;-79
2022/08/31 10:22:02;;;;;;;4.50;2.40;;;;;;;23.83;46.57;98995.63;5055374;28;20052;-78
2022/08/31 10:24:33;;;;;;;4.30;1.95;;;;;;;23.79;46.57;98988.78;5055049;28;20152;-78
2022/08/31 10:27:04;;;;;;;9.65;2.60;;;;;;;23.66;46.47;98959.38;5055456;28;20091;-79
2022/08/31 10:29:35;;;;;;;3.38;2.13;;;;;;;23.99;45.97;98994.63;5055574;28;20049;-76
2022/08/31 10:32:15;;;;;;;2.70;1.92;;;;;;;23.74;46.34;98952.66;5055707;28;20045;-78
2022/08/31 10:35:04;;;;;;;4.90;2.03;;;;;;;23.86;46.47;98994.56;5055918;28;20060;-78
2022/08/31 10:37:35;;;;;;;5.38;2.08;;;;;;;24.08;46.08;98989.53;5037792;28;20076;-78
2022/08/31 10:40:12;;;;;;;5.97;2.17;;;;;;;24.33;45.22;98994.09;5054853;28;20469;-78
2022/08/31 10:43:15;;;;;;;12.43;2.35;;;;;;;24.64;44.55;98984.03;5055888;28;20107;-79
2022/08/31 10:45:47;;;;;;;3.75;1.92;;;;;;;24.64;44.73;98992.03;5025007;28;20048;-76
2022/08/31 10:48:25;;;;;;;4.22;2.25;;;;;;;24.51;44.27;98978.66;5055001;28;20111;-78
2022/08/31 10:50:55;;;;;;;5.40;1.88;;;;;;;24.51;44.19;98991.16;5054985;28;20142;-78
2022/08/31 10:53:49;;;;;;;3.95;1.80;;;;;;;24.41;44.41;98982.03;5054993;28;20049;-78
2022/08/31 10:56:16;;;;;;;5.07;2.03;;;;;;;24.69;44.09;98978.34;5036986;28;20393;-78
2022/08/31 10:59:03;;;;;;;5.70;1.80;;;;;;;24.67;44.01;98996.31;5054475;28;20666;-77
2022/08/31 11:01:33;;;;;;;4.13;2.40;;;;;;;24.52;43.94;98952.81;5053970;28;20406;-77
2022/08/31 11:04:17;;;;;;;6.10;3.15;;;;;;;24.71;44.07;98984.44;5054824;28;20061;-77
2022/08/31 11:06:56;;;;;;;5.28;2.58;;;;;;;24.64;43.99;98986.69;5054609;28;20479;-77
2022/08/31 11:09:36;;;;;;;3.80;2.13;;;;;;;24.68;44.39;98980.19;5054765;28;20497;-78
2022/08/31 11:12:30;;;;;;;4.00;2.13;;;;;;;24.72;44.04;98989.69;5053697;28;20053;-78
2022/08/31 11:15:27;;;;;;;5.53;2.53;;;;;;;24.40;44.65;98973.19;5054739;28;20160;-78
2022/08/31 11:17:54;;;;;;;5.38;2.42;;;;;;;24.08;45.36;98978.00;5054416;28;20064;-78
2022/08/31 11:20:24;;;;;;;6.30;2.47;;;;;;;24.20;45.07;98976.31;5054584;28;20053;-77
2022/08/31 11:23:14;;;;;;;6.93;2.40;;;;;;;24.39;44.93;98978.59;5054542;28;20077;-77
2022/08/31 11:25:54;;;;;;;4.70;2.08;;;;;;;24.52;44.25;98982.19;5026150;28;20053;-77
2022/08/31 11:28:53;;;;;;;4.13;2.22;;;;;;;24.45;44.11;98978.19;5054851;28;20144;-75
2022/08/31 11:31:29;;;;;;;9.57;5.38;;;;;;;24.65;44.04;98972.41;5043657;28;20053;-78
2022/08/31 11:34:12;;;;;;;7.88;3.72;;;;;;;24.60;43.86;98965.66;5054325;28;20057;-79
2022/08/31 11:36:46;;;;;;;4.45;3.15;;;;;;;24.53;44.33;98978.56;5053731;28;20402;-77
2022/08/31 11:39:40;;;;;;;9.63;2.60;;;;;;;23.97;44.80;98936.03;5053996;28;20184;-78
2022/08/31 11:42:11;;;;;;;11.52;2.72;;;;;;;23.72;45.66;98982.09;5053800;28;20045;-78
2022/08/31 11:44:41;;;;;;;2.92;2.35;;;;;;;23.40;46.35;98981.47;5054051;28;20064;-78
2022/08/31 11:47:30;;;;;;;6.38;3.78;;;;;;;23.15;47.27;98979.53;5053527;28;20052;-77
2022/08/31 11:50:55;;;;;;;6.55;2.45;;;;;;;23.09;47.53;98962.94;5036309;28;20555;-78
2022/08/31 11:53:33;;;;;;;3.78;2.28;;;;;;;23.34;47.55;98972.09;5048325;28;20052;-77
2022/08/31 11:56:02;;;;;;;5.65;2.20;;;;;;;23.30;48.17;98973.22;5067426;28;20527;-77
2022/08/31 11:58:38;;;;;;;3.80;2.20;;;;;;;23.22;48.73;98972.84;5073802;28;20136;-77
2022/08/31 12:01:12;;;;;;;29.00;3.60;;;;;;;23.32;49.76;98995.31;5065474;28;20094;-77
2022/08/31 12:03:49;;;;;;;8.63;2.50;;;;;;;23.08;50.43;98993.22;5073816;28;20056;-77
2022/08/31 12:06:31;;;;;;;5.78;3.15;;;;;;;22.93;51.19;99006.56;5073567;28;20512;-77
2022/08/31 12:09:01;;;;;;;7.35;2.40;;;;;;;22.83;51.44;98991.16;5073405;28;20444;-77
2022/08/31 12:11:39;;;;;;;5.13;1.98;;;;;;;22.57;51.46;98991.91;5074455;28;20053;-77
2022/08/31 12:14:12;;;;;;;4.38;2.15;;;;;;;22.54;51.47;99003.56;5073353;28;20052;-81
2022/08/31 12:17:08;;;;;;;3.80;1.45;;;;;;;22.67;51.05;99025.84;5073903;28;20048;-78
2022/08/31 12:20:05;;;;;;;3.55;1.83;;;;;;;22.54;51.01;98978.75;5073543;28;20062;-80